sensor_id;sensor_type;location;lat;lon;timestamp;temperature;humidity
66576;SHT31;53428;47.686;16.584;2022-12-07T00:04:35;4.06;90.11
66576;SHT31;53428;47.686;16.584;2022-12-07T00:09:35;4.05;90.55
66576;SHT31;53428;47.686;16.584;2022-12-07T00:14:34;3.96;90.81
66576;SHT31;53428;47.686;16.584;2022-12-07T00:19:33;3.87;90.94
66576;SHT31;53428;47.686;16.584;2022-12-07T00:24:32;3.88;91.24
66576;SHT31;53428;47.686;16.584;2022-12-07T00:29:32;3.82;91.24
66576;SHT31;53428;47.686;16.584;2022-12-07T00:34:31;3.85;91.09
66576;SHT31;53428;47.686;16.584;2022-12-07T00:39:30;3.92;91.37
66576;SHT31;53428;47.686;16.584;2022-12-07T00:44:30;3.95;91.22
66576;SHT31;53428;47.686;16.584;2022-12-07T00:49:29;3.81;91.68
66576;SHT31;53428;47.686;16.584;2022-12-07T00:54:28;3.66;92.37
66576;SHT31;53428;47.686;16.584;2022-12-07T00:59:28;3.54;92.99
66576;SHT31;53428;47.686;16.584;2022-12-07T01:04:27;3.56;92.80
66576;SHT31;53428;47.686;16.584;2022-12-07T01:09:26;3.66;92.53
66576;SHT31;53428;47.686;16.584;2022-12-07T01:14:26;3.67;92.19
66576;SHT31;53428;47.686;16.584;2022-12-07T01:19:25;3.79;91.99
66576;SHT31;53428;47.686;16.584;2022-12-07T01:24:25;3.78;92.20
66576;SHT31;53428;47.686;16.584;2022-12-07T01:29:24;3.70;92.26
66576;SHT31;53428;47.686;16.584;2022-12-07T01:34:24;3.61;92.80
66576;SHT31;53428;47.686;16.584;2022-12-07T01:39:23;3.58;92.98
66576;SHT31;53428;47.686;16.584;2022-12-07T01:44:26;3.53;93.20
66576;SHT31;53428;47.686;16.584;2022-12-07T01:49:46;3.50;93.28
66576;SHT31;53428;47.686;16.584;2022-12-07T01:54:51;3.53;93.31
66576;SHT31;53428;47.686;16.584;2022-12-07T01:59:51;3.54;93.78
66576;SHT31;53428;47.686;16.584;2022-12-07T02:04:53;3.54;93.86
66576;SHT31;53428;47.686;16.584;2022-12-07T02:09:53;3.51;93.59
66576;SHT31;53428;47.686;16.584;2022-12-07T02:14:52;3.48;93.44
66576;SHT31;53428;47.686;16.584;2022-12-07T02:30:22;3.61;93.05
66576;SHT31;53428;47.686;16.584;2022-12-07T02:40:55;3.51;93.23
66576;SHT31;53428;47.686;16.584;2022-12-07T02:46:23;3.51;93.62
66576;SHT31;53428;47.686;16.584;2022-12-07T02:51:24;3.53;93.84
66576;SHT31;53428;47.686;16.584;2022-12-07T03:07:07;3.44;94.17
66576;SHT31;53428;47.686;16.584;2022-12-07T03:12:16;3.46;93.90
66576;SHT31;53428;47.686;16.584;2022-12-07T03:17:22;3.51;93.74
66576;SHT31;53428;47.686;16.584;2022-12-07T03:22:23;3.53;93.74
66576;SHT31;53428;47.686;16.584;2022-12-07T03:27:25;3.53;93.21
66576;SHT31;53428;47.686;16.584;2022-12-07T03:42:32;3.46;93.28
66576;SHT31;53428;47.686;16.584;2022-12-07T03:52:52;3.44;94.36
66576;SHT31;53428;47.686;16.584;2022-12-07T03:57:57;3.51;93.36
66576;SHT31;53428;47.686;16.584;2022-12-07T04:02:57;3.41;93.78
66576;SHT31;53428;47.686;16.584;2022-12-07T04:07:57;3.47;93.66
66576;SHT31;53428;47.686;16.584;2022-12-07T04:12:56;3.50;93.86
66576;SHT31;53428;47.686;16.584;2022-12-07T04:17:55;3.40;94.10
66576;SHT31;53428;47.686;16.584;2022-12-07T04:22:55;3.40;93.94
66576;SHT31;53428;47.686;16.584;2022-12-07T04:27:54;3.41;93.59
66576;SHT31;53428;47.686;16.584;2022-12-07T04:32:53;3.44;93.51
66576;SHT31;53428;47.686;16.584;2022-12-07T04:37:53;3.37;93.67
66576;SHT31;53428;47.686;16.584;2022-12-07T04:42:52;3.30;94.21
66576;SHT31;53428;47.686;16.584;2022-12-07T04:47:51;3.30;94.45
66576;SHT31;53428;47.686;16.584;2022-12-07T04:52:51;3.46;94.26
66576;SHT31;53428;47.686;16.584;2022-12-07T04:57:50;3.43;94.15
66576;SHT31;53428;47.686;16.584;2022-12-07T05:02:49;3.47;93.90
66576;SHT31;53428;47.686;16.584;2022-12-07T05:07:49;3.46;94.13
66576;SHT31;53428;47.686;16.584;2022-12-07T05:12:48;3.50;93.51
66576;SHT31;53428;47.686;16.584;2022-12-07T05:17:47;3.44;93.90
66576;SHT31;53428;47.686;16.584;2022-12-07T05:22:46;3.41;94.10
66576;SHT31;53428;47.686;16.584;2022-12-07T05:27:46;3.46;94.10
66576;SHT31;53428;47.686;16.584;2022-12-07T05:32:46;3.63;93.21
66576;SHT31;53428;47.686;16.584;2022-12-07T05:37:45;3.53;93.31
66576;SHT31;53428;47.686;16.584;2022-12-07T05:42:45;3.51;93.67
66576;SHT31;53428;47.686;16.584;2022-12-07T05:47:44;3.44;93.92
66576;SHT31;53428;47.686;16.584;2022-12-07T05:52:43;3.43;93.77
66576;SHT31;53428;47.686;16.584;2022-12-07T05:57:43;3.50;93.81
66576;SHT31;53428;47.686;16.584;2022-12-07T06:03:02;3.58;93.30
66576;SHT31;53428;47.686;16.584;2022-12-07T06:08:01;3.87;91.73
66576;SHT31;53428;47.686;16.584;2022-12-07T06:13:01;3.94;91.41
66576;SHT31;53428;47.686;16.584;2022-12-07T06:18:00;3.85;91.87
66576;SHT31;53428;47.686;16.584;2022-12-07T06:22:59;3.94;91.65
66576;SHT31;53428;47.686;16.584;2022-12-07T06:27:59;3.79;91.91
66576;SHT31;53428;47.686;16.584;2022-12-07T06:32:58;3.88;91.51
66576;SHT31;53428;47.686;16.584;2022-12-07T06:37:57;3.85;91.54
66576;SHT31;53428;47.686;16.584;2022-12-07T06:42:56;3.81;92.33
66576;SHT31;53428;47.686;16.584;2022-12-07T06:47:56;3.85;91.97
66576;SHT31;53428;47.686;16.584;2022-12-07T06:52:55;4.08;90.93
66576;SHT31;53428;47.686;16.584;2022-12-07T06:57:55;4.13;90.61
66576;SHT31;53428;47.686;16.584;2022-12-07T07:02:54;4.29;89.76
66576;SHT31;53428;47.686;16.584;2022-12-07T07:07:53;4.42;89.78
66576;SHT31;53428;47.686;16.584;2022-12-07T07:12:53;4.49;89.40
66576;SHT31;53428;47.686;16.584;2022-12-07T07:17:52;4.58;89.21
66576;SHT31;53428;47.686;16.584;2022-12-07T07:22:55;4.53;89.40
66576;SHT31;53428;47.686;16.584;2022-12-07T07:27:55;4.54;89.52
66576;SHT31;53428;47.686;16.584;2022-12-07T07:32:59;4.42;90.23
66576;SHT31;53428;47.686;16.584;2022-12-07T07:37:58;4.39;90.78
66576;SHT31;53428;47.686;16.584;2022-12-07T07:42:58;4.32;90.58
66576;SHT31;53428;47.686;16.584;2022-12-07T07:47:57;4.37;90.70
66576;SHT31;53428;47.686;16.584;2022-12-07T07:52:57;4.36;90.72
66576;SHT31;53428;47.686;16.584;2022-12-07T07:57:57;4.42;91.07
66576;SHT31;53428;47.686;16.584;2022-12-07T08:02:56;4.50;90.56
66576;SHT31;53428;47.686;16.584;2022-12-07T08:07:57;4.54;90.87
66576;SHT31;53428;47.686;16.584;2022-12-07T08:12:56;4.56;90.88
66576;SHT31;53428;47.686;16.584;2022-12-07T08:18:13;4.70;90.47
66576;SHT31;53428;47.686;16.584;2022-12-07T08:23:13;4.95;88.98
66576;SHT31;53428;47.686;16.584;2022-12-07T08:28:16;5.23;87.65
66576;SHT31;53428;47.686;16.584;2022-12-07T08:33:15;5.43;87.01
66576;SHT31;53428;47.686;16.584;2022-12-07T08:38:15;5.50;86.15
66576;SHT31;53428;47.686;16.584;2022-12-07T08:43:14;5.52;86.44
66576;SHT31;53428;47.686;16.584;2022-12-07T08:48:14;5.56;85.91
66576;SHT31;53428;47.686;16.584;2022-12-07T08:53:16;5.69;85.51
66576;SHT31;53428;47.686;16.584;2022-12-07T08:58:16;5.74;84.46
66576;SHT31;53428;47.686;16.584;2022-12-07T09:03:16;5.56;85.03
66576;SHT31;53428;47.686;16.584;2022-12-07T09:08:16;5.60;85.16
66576;SHT31;53428;47.686;16.584;2022-12-07T09:13:15;5.49;85.49
66576;SHT31;53428;47.686;16.584;2022-12-07T09:18:14;5.49;85.22
66576;SHT31;53428;47.686;16.584;2022-12-07T09:23:14;5.59;84.91
66576;SHT31;53428;47.686;16.584;2022-12-07T09:28:13;5.56;85.17
66576;SHT31;53428;47.686;16.584;2022-12-07T09:33:13;5.57;84.33
66576;SHT31;53428;47.686;16.584;2022-12-07T09:38:13;5.66;84.04
66576;SHT31;53428;47.686;16.584;2022-12-07T09:43:19;5.71;83.12
66576;SHT31;53428;47.686;16.584;2022-12-07T09:48:31;5.75;83.02
66576;SHT31;53428;47.686;16.584;2022-12-07T09:53:34;5.75;82.40
66576;SHT31;53428;47.686;16.584;2022-12-07T09:58:35;5.75;82.40
66576;SHT31;53428;47.686;16.584;2022-12-07T10:03:39;5.69;83.14
66576;SHT31;53428;47.686;16.584;2022-12-07T10:08:39;5.94;82.24
66576;SHT31;53428;47.686;16.584;2022-12-07T10:13:43;5.90;82.55
66576;SHT31;53428;47.686;16.584;2022-12-07T10:18:44;5.78;83.36
66576;SHT31;53428;47.686;16.584;2022-12-07T10:24:04;5.77;83.31
66576;SHT31;53428;47.686;16.584;2022-12-07T10:34:35;5.86;82.85
66576;SHT31;53428;47.686;16.584;2022-12-07T10:39:50;6.04;82.23
66576;SHT31;53428;47.686;16.584;2022-12-07T10:45:13;6.21;81.29
66576;SHT31;53428;47.686;16.584;2022-12-07T10:50:52;6.21;81.86
66576;SHT31;53428;47.686;16.584;2022-12-07T11:01:38;6.32;81.13
66576;SHT31;53428;47.686;16.584;2022-12-07T11:23:03;6.54;78.77
66576;SHT31;53428;47.686;16.584;2022-12-07T11:33:41;6.79;78.60
66576;SHT31;53428;47.686;16.584;2022-12-07T11:38:52;6.93;78.36
66576;SHT31;53428;47.686;16.584;2022-12-07T11:43:56;7.32;77.06
66576;SHT31;53428;47.686;16.584;2022-12-07T11:49:23;7.72;75.72
66576;SHT31;53428;47.686;16.584;2022-12-07T11:54:32;7.70;75.50
66576;SHT31;53428;47.686;16.584;2022-12-07T11:59:39;7.65;76.07
66576;SHT31;53428;47.686;16.584;2022-12-07T12:04:59;7.72;75.77
66576;SHT31;53428;47.686;16.584;2022-12-07T12:10:18;7.61;74.51
66576;SHT31;53428;47.686;16.584;2022-12-07T12:25:45;7.24;75.74
66576;SHT31;53428;47.686;16.584;2022-12-07T12:31:13;7.35;75.25
66576;SHT31;53428;47.686;16.584;2022-12-07T12:57:30;7.05;75.70
66576;SHT31;53428;47.686;16.584;2022-12-07T13:02:38;8.39;71.92
66576;SHT31;53428;47.686;16.584;2022-12-07T13:12:43;8.08;70.45
66576;SHT31;53428;47.686;16.584;2022-12-07T13:22:53;7.73;71.60
66576;SHT31;53428;47.686;16.584;2022-12-07T13:28:18;7.39;73.60
66576;SHT31;53428;47.686;16.584;2022-12-07T13:33:17;7.31;73.66
66576;SHT31;53428;47.686;16.584;2022-12-07T13:38:25;7.16;75.30
66576;SHT31;53428;47.686;16.584;2022-12-07T13:43:25;7.24;74.53
66576;SHT31;53428;47.686;16.584;2022-12-07T13:48:50;7.09;75.31
66576;SHT31;53428;47.686;16.584;2022-12-07T13:54:01;7.01;75.11
66576;SHT31;53428;47.686;16.584;2022-12-07T13:59:00;6.77;76.68
66576;SHT31;53428;47.686;16.584;2022-12-07T14:04:37;6.66;76.40
66576;SHT31;53428;47.686;16.584;2022-12-07T14:09:36;6.48;79.50
66576;SHT31;53428;47.686;16.584;2022-12-07T14:14:36;6.17;81.99
66576;SHT31;53428;47.686;16.584;2022-12-07T14:19:53;5.97;80.33
66576;SHT31;53428;47.686;16.584;2022-12-07T14:30:16;5.31;83.81
66576;SHT31;53428;47.686;16.584;2022-12-07T14:35:17;5.42;84.28
66576;SHT31;53428;47.686;16.584;2022-12-07T14:40:20;5.15;86.52
66576;SHT31;53428;47.686;16.584;2022-12-07T14:45:21;4.95;88.73
66576;SHT31;53428;47.686;16.584;2022-12-07T14:50:21;4.85;88.47
66576;SHT31;53428;47.686;16.584;2022-12-07T14:55:27;4.75;89.91
66576;SHT31;53428;47.686;16.584;2022-12-07T15:00:27;4.53;91.13
66576;SHT31;53428;47.686;16.584;2022-12-07T15:05:27;4.28;92.31
66576;SHT31;53428;47.686;16.584;2022-12-07T15:10:29;4.40;92.55
66576;SHT31;53428;47.686;16.584;2022-12-07T15:15:30;4.37;92.74
66576;SHT31;53428;47.686;16.584;2022-12-07T15:20:29;4.47;91.97
66576;SHT31;53428;47.686;16.584;2022-12-07T15:25:28;4.39;91.01
66576;SHT31;53428;47.686;16.584;2022-12-07T15:30:28;4.15;90.60
66576;SHT31;53428;47.686;16.584;2022-12-07T15:35:27;4.03;90.71
66576;SHT31;53428;47.686;16.584;2022-12-07T15:40:26;3.64;91.90
66576;SHT31;53428;47.686;16.584;2022-12-07T15:45:25;3.71;92.38
66576;SHT31;53428;47.686;16.584;2022-12-07T15:50:25;3.60;93.40
66576;SHT31;53428;47.686;16.584;2022-12-07T15:55:24;3.71;93.01
66576;SHT31;53428;47.686;16.584;2022-12-07T16:00:24;4.01;91.23
66576;SHT31;53428;47.686;16.584;2022-12-07T16:05:23;3.78;91.64
66576;SHT31;53428;47.686;16.584;2022-12-07T16:10:22;3.81;92.12
66576;SHT31;53428;47.686;16.584;2022-12-07T16:15:21;3.79;92.06
66576;SHT31;53428;47.686;16.584;2022-12-07T16:20:20;3.81;90.48
66576;SHT31;53428;47.686;16.584;2022-12-07T16:25:19;3.73;91.01
66576;SHT31;53428;47.686;16.584;2022-12-07T16:30:19;3.70;92.13
66576;SHT31;53428;47.686;16.584;2022-12-07T16:35:22;3.53;89.64
66576;SHT31;53428;47.686;16.584;2022-12-07T16:40:24;3.54;87.59
66576;SHT31;53428;47.686;16.584;2022-12-07T16:45:24;3.39;87.42
66576;SHT31;53428;47.686;16.584;2022-12-07T16:50:23;3.41;89.03
66576;SHT31;53428;47.686;16.584;2022-12-07T16:55:23;3.29;88.49
66576;SHT31;53428;47.686;16.584;2022-12-07T17:00:22;3.23;88.88
66576;SHT31;53428;47.686;16.584;2022-12-07T17:05:21;3.31;89.16
66576;SHT31;53428;47.686;16.584;2022-12-07T17:10:20;3.36;87.93
66576;SHT31;53428;47.686;16.584;2022-12-07T17:15:21;3.43;88.03
66576;SHT31;53428;47.686;16.584;2022-12-07T17:20:21;3.47;88.35
66576;SHT31;53428;47.686;16.584;2022-12-07T17:25:21;3.31;88.86
66576;SHT31;53428;47.686;16.584;2022-12-07T17:30:20;3.10;89.35
66576;SHT31;53428;47.686;16.584;2022-12-07T17:35:20;3.19;89.50
66576;SHT31;53428;47.686;16.584;2022-12-07T17:40:19;3.10;89.79
66576;SHT31;53428;47.686;16.584;2022-12-07T17:45:18;3.24;90.44
66576;SHT31;53428;47.686;16.584;2022-12-07T17:50:17;3.22;89.79
66576;SHT31;53428;47.686;16.584;2022-12-07T17:55:37;3.13;89.56
66576;SHT31;53428;47.686;16.584;2022-12-07T18:00:38;3.05;89.67
66576;SHT31;53428;47.686;16.584;2022-12-07T18:05:37;3.06;89.10
66576;SHT31;53428;47.686;16.584;2022-12-07T18:10:37;3.23;88.97
66576;SHT31;53428;47.686;16.584;2022-12-07T18:15:36;3.23;88.83
66576;SHT31;53428;47.686;16.584;2022-12-07T18:20:36;2.99;88.70
66576;SHT31;53428;47.686;16.584;2022-12-07T18:25:35;2.92;89.03
66576;SHT31;53428;47.686;16.584;2022-12-07T18:30:34;3.02;88.32
66576;SHT31;53428;47.686;16.584;2022-12-07T18:35:34;2.92;89.50
66576;SHT31;53428;47.686;16.584;2022-12-07T18:40:39;2.65;90.97
66576;SHT31;53428;47.686;16.584;2022-12-07T18:45:41;2.45;91.73
66576;SHT31;53428;47.686;16.584;2022-12-07T18:50:42;2.19;91.88
66576;SHT31;53428;47.686;16.584;2022-12-07T18:55:42;2.05;93.03
66576;SHT31;53428;47.686;16.584;2022-12-07T19:00:41;2.17;93.21
66576;SHT31;53428;47.686;16.584;2022-12-07T19:05:41;2.09;93.54
66576;SHT31;53428;47.686;16.584;2022-12-07T19:10:42;1.91;93.60
66576;SHT31;53428;47.686;16.584;2022-12-07T19:15:42;1.93;93.91
66576;SHT31;53428;47.686;16.584;2022-12-07T19:20:41;1.75;94.31
66576;SHT31;53428;47.686;16.584;2022-12-07T19:25:41;1.72;94.12
66576;SHT31;53428;47.686;16.584;2022-12-07T19:30:40;2.20;92.58
66576;SHT31;53428;47.686;16.584;2022-12-07T19:35:40;2.14;92.73
66576;SHT31;53428;47.686;16.584;2022-12-07T19:40:40;2.10;90.84
66576;SHT31;53428;47.686;16.584;2022-12-07T19:45:39;2.24;90.42
66576;SHT31;53428;47.686;16.584;2022-12-07T19:50:39;2.24;89.82
66576;SHT31;53428;47.686;16.584;2022-12-07T19:55:40;2.40;88.39
66576;SHT31;53428;47.686;16.584;2022-12-07T20:00:41;2.36;88.89
66576;SHT31;53428;47.686;16.584;2022-12-07T20:05:41;2.38;88.52
66576;SHT31;53428;47.686;16.584;2022-12-07T20:10:41;2.41;88.09
66576;SHT31;53428;47.686;16.584;2022-12-07T20:15:40;2.41;88.28
66576;SHT31;53428;47.686;16.584;2022-12-07T20:20:40;2.30;88.82
66576;SHT31;53428;47.686;16.584;2022-12-07T20:25:41;2.43;89.10
66576;SHT31;53428;47.686;16.584;2022-12-07T20:30:52;2.44;88.63
66576;SHT31;53428;47.686;16.584;2022-12-07T20:35:58;2.48;87.98
66576;SHT31;53428;47.686;16.584;2022-12-07T20:41:00;2.38;87.98
66576;SHT31;53428;47.686;16.584;2022-12-07T20:46:00;2.34;87.84
66576;SHT31;53428;47.686;16.584;2022-12-07T20:51:06;2.29;86.88
66576;SHT31;53428;47.686;16.584;2022-12-07T20:56:06;2.26;87.71
66576;SHT31;53428;47.686;16.584;2022-12-07T21:01:05;2.23;88.56
66576;SHT31;53428;47.686;16.584;2022-12-07T21:06:05;2.24;88.60
66576;SHT31;53428;47.686;16.584;2022-12-07T21:11:07;2.34;88.59
66576;SHT31;53428;47.686;16.584;2022-12-07T21:16:12;2.36;88.16
66576;SHT31;53428;47.686;16.584;2022-12-07T21:21:13;2.31;89.25
66576;SHT31;53428;47.686;16.584;2022-12-07T21:26:20;2.36;89.11
66576;SHT31;53428;47.686;16.584;2022-12-07T21:31:20;2.31;88.53
66576;SHT31;53428;47.686;16.584;2022-12-07T21:36:21;2.40;88.53
66576;SHT31;53428;47.686;16.584;2022-12-07T21:46:24;2.50;89.40
66576;SHT31;53428;47.686;16.584;2022-12-07T21:51:26;2.51;89.19
66576;SHT31;53428;47.686;16.584;2022-12-07T22:01:28;2.60;89.83
66576;SHT31;53428;47.686;16.584;2022-12-07T22:06:28;2.65;90.12
66576;SHT31;53428;47.686;16.584;2022-12-07T22:11:27;2.71;90.11
66576;SHT31;53428;47.686;16.584;2022-12-07T22:16:26;2.77;90.48
66576;SHT31;53428;47.686;16.584;2022-12-07T22:21:26;2.84;90.68
66576;SHT31;53428;47.686;16.584;2022-12-07T22:26:26;2.92;90.71
66576;SHT31;53428;47.686;16.584;2022-12-07T22:31:25;3.02;90.51
66576;SHT31;53428;47.686;16.584;2022-12-07T22:36:25;3.05;90.67
66576;SHT31;53428;47.686;16.584;2022-12-07T22:41:29;3.19;90.67
66576;SHT31;53428;47.686;16.584;2022-12-07T22:46:28;3.30;90.30
66576;SHT31;53428;47.686;16.584;2022-12-07T22:51:33;3.43;90.14
66576;SHT31;53428;47.686;16.584;2022-12-07T22:56:35;3.60;89.64
66576;SHT31;53428;47.686;16.584;2022-12-07T23:01:34;3.54;90.63
66576;SHT31;53428;47.686;16.584;2022-12-07T23:06:34;3.50;91.12
66576;SHT31;53428;47.686;16.584;2022-12-07T23:11:37;3.47;90.89
66576;SHT31;53428;47.686;16.584;2022-12-07T23:16:55;3.53;90.84
66576;SHT31;53428;47.686;16.584;2022-12-07T23:21:54;3.92;87.37
66576;SHT31;53428;47.686;16.584;2022-12-07T23:26:54;4.57;83.96
66576;SHT31;53428;47.686;16.584;2022-12-07T23:31:53;4.88;82.47
66576;SHT31;53428;47.686;16.584;2022-12-07T23:36:52;5.09;81.50
66576;SHT31;53428;47.686;16.584;2022-12-07T23:41:52;5.01;81.75
66576;SHT31;53428;47.686;16.584;2022-12-07T23:46:51;5.07;81.28
66576;SHT31;53428;47.686;16.584;2022-12-07T23:51:50;5.04;81.29
66576;SHT31;53428;47.686;16.584;2022-12-07T23:56:49;5.05;81.08
